Time;durP1;ratioP1;P1;durP2;ratioP2;P2;SDS_P1;SDS_P2;PMS_P1;PMS_P2;Temp;Humidity;BMP_temperature;BMP_pressure;BME280_temperature;BME280_humidity;BME280_pressure;Samples;Min_cycle;Max_cycle;Signal;HPM_P1;HPM_P2
2022/06/09 00:01:26;;;;;;;0.70;0.50;;;15.30;99.90;;;;;;5074070;28;20405;-76
2022/06/09 00:04:13;;;;;;;4.60;1.00;;;15.30;99.90;;;;;;5075800;28;20399;-76
2022/06/09 00:06:44;;;;;;;1.10;1.00;;;15.30;99.90;;;;;;5073243;28;20447;-75
2022/06/09 00:09:10;;;;;;;0.90;0.77;;;15.30;99.90;;;;;;5091834;28;20426;-77
2022/06/09 00:11:38;;;;;;;1.40;0.70;;;15.20;99.90;;;;;;5095227;28;20422;-76
2022/06/09 00:14:06;;;;;;;3.00;0.70;;;15.20;99.90;;;;;;5099447;28;20472;-76
2022/06/09 00:16:32;;;;;;;0.70;0.50;;;15.10;99.90;;;;;;5099263;28;20499;-76
2022/06/09 00:18:58;;;;;;;0.90;0.73;;;15.10;99.90;;;;;;5084347;28;20476;-77
2022/06/09 00:21:24;;;;;;;6.47;1.17;;;15.10;99.90;;;;;;5081499;28;20408;-77
2022/06/09 00:23:50;;;;;;;1.20;1.10;;;15.00;99.90;;;;;;5085112;28;20173;-76
2022/06/09 00:26:16;;;;;;;0.70;0.60;;;15.00;99.90;;;;;;5084343;28;20182;-75
2022/06/09 00:28:42;;;;;;;0.70;0.60;;;14.90;99.90;;;;;;5097500;28;20918;-76
2022/06/09 00:31:07;;;;;;;0.93;0.70;;;14.80;99.90;;;;;;5103871;28;20410;-74
2022/06/09 00:33:33;;;;;;;1.60;1.47;;;14.80;99.90;;;;;;5104513;28;20216;-77
2022/06/09 00:35:58;;;;;;;0.90;0.70;;;14.80;99.90;;;;;;5099118;28;20194;-76
2022/06/09 00:38:24;;;;;;;0.80;0.60;;;14.70;99.90;;;;;;5104059;28;20651;-77
2022/06/09 00:40:50;;;;;;;1.47;0.90;;;14.70;99.90;;;;;;5103081;28;20640;-76
2022/06/09 00:43:16;;;;;;;1.10;1.00;;;14.60;99.90;;;;;;5105154;28;20173;-77
2022/06/09 00:45:52;;;;;;;0.70;0.50;;;14.50;99.90;;;;;;5101875;28;20193;-77
2022/06/09 00:48:28;;;;;;;0.93;0.80;;;14.50;99.90;;;;;;5100260;28;20422;-77
2022/06/09 00:51:01;;;;;;;0.70;0.50;;;14.50;99.90;;;;;;5103079;28;20403;-77
2022/06/09 00:53:31;;;;;;;0.80;0.50;;;14.50;99.90;;;;;;5105514;28;20916;-76
2022/06/09 00:55:59;;;;;;;2.10;1.90;;;14.40;99.90;;;;;;5099925;28;20489;-75
2022/06/09 00:58:26;;;;;;;0.80;0.60;;;14.40;99.90;;;;;;5085847;28;20451;-75
2022/06/09 01:01:02;;;;;;;1.00;0.87;;;14.40;99.90;;;;;;5081829;28;20408;-76
2022/06/09 01:03:43;;;;;;;0.80;0.60;;;14.40;99.90;;;;;;5082027;28;20807;-75
2022/06/09 01:06:20;;;;;;;0.73;0.60;;;14.40;99.90;;;;;;5091875;28;20442;-76
2022/06/09 01:09:05;;;;;;;0.70;0.50;;;14.40;99.90;;;;;;5102358;28;20411;-76
2022/06/09 01:11:30;;;;;;;0.80;0.70;;;14.40;99.90;;;;;;5103607;28;20500;-74
2022/06/09 01:13:58;;;;;;;1.00;0.80;;;14.40;99.90;;;;;;5101944;28;20910;-75
2022/06/09 01:16:34;;;;;;;1.57;1.27;;;14.40;99.90;;;;;;5088296;28;20261;-77
2022/06/09 01:19:29;;;;;;;0.70;0.50;;;14.50;99.90;;;;;;5081628;28;20535;-75
2022/06/09 01:22:48;;;;;;;0.70;0.60;;;14.40;99.90;;;;;;5068185;28;20409;-76
2022/06/09 01:25:34;;;;;;;0.70;0.50;;;14.40;99.90;;;;;;5007623;28;20494;-75
2022/06/09 01:28:13;;;;;;;1.87;0.60;;;14.40;99.90;;;;;;5081193;28;20432;-76
2022/06/09 01:30:54;;;;;;;1.40;0.90;;;14.50;99.90;;;;;;5082260;28;20400;-74
2022/06/09 01:33:22;;;;;;;1.00;0.93;;;14.40;99.90;;;;;;5082630;28;20413;-76
2022/06/09 01:36:18;;;;;;;3.30;0.60;;;14.40;99.90;;;;;;5086317;28;20515;-75
2022/06/09 01:38:50;;;;;;;0.70;0.60;;;14.40;99.90;;;;;;5061658;28;20487;-74
2022/06/09 01:41:16;;;;;;;0.73;0.60;;;14.40;99.90;;;;;;5100893;28;20422;-75
2022/06/09 01:43:44;;;;;;;2.17;0.90;;;14.40;99.90;;;;;;5102617;28;20427;-76
2022/06/09 01:46:20;;;;;;;0.80;0.70;;;14.50;99.90;;;;;;5093753;28;20855;-76
2022/06/09 01:48:48;;;;;;;0.70;0.60;;;14.50;99.90;;;;;;5100994;28;20816;-76
2022/06/09 01:51:16;;;;;;;0.70;0.60;;;14.50;99.90;;;;;;5101399;28;20412;-75
2022/06/09 01:53:44;;;;;;;1.40;1.30;;;14.50;99.90;;;;;;5101012;28;20453;-74
2022/06/09 01:56:15;;;;;;;0.80;0.60;;;14.60;99.90;;;;;;5090945;28;20472;-75
2022/06/09 01:58:55;;;;;;;1.17;0.60;;;14.60;99.90;;;;;;5080816;28;20455;-76
2022/06/09 02:01:26;;;;;;;1.67;1.43;;;14.70;99.90;;;;;;5082116;28;20804;-76
2022/06/09 02:03:55;;;;;;;1.43;1.33;;;14.70;99.90;;;;;;5082196;28;20416;-75
2022/06/09 02:06:21;;;;;;;0.80;0.70;;;14.80;99.90;;;;;;5092809;28;20435;-76
2022/06/09 02:08:48;;;;;;;1.10;0.80;;;14.80;99.90;;;;;;5100073;28;20408;-76
2022/06/09 02:11:14;;;;;;;0.70;0.50;;;14.80;99.90;;;;;;5100520;28;20411;-75
2022/06/09 02:13:47;;;;;;;0.73;0.57;;;14.80;99.90;;;;;;5101674;28;20403;-76
2022/06/09 02:16:16;;;;;;;1.10;1.00;;;14.70;99.90;;;;;;5088922;28;20885;-76
2022/06/09 02:18:46;;;;;;;0.80;0.63;;;14.70;99.90;;;;;;5076446;28;20956;-76
2022/06/09 02:21:18;;;;;;;0.70;0.57;;;14.70;99.90;;;;;;5077661;28;20443;-76
2022/06/09 02:23:45;;;;;;;0.90;0.70;;;14.60;99.90;;;;;;5079189;28;20566;-76
2022/06/09 02:26:10;;;;;;;2.27;1.60;;;14.60;99.90;;;;;;5086918;28;20984;-74
2022/06/09 02:28:36;;;;;;;3.90;1.00;;;14.60;99.90;;;;;;5098366;28;20420;-76
2022/06/09 02:31:02;;;;;;;0.70;0.50;;;14.70;99.90;;;;;;5097719;28;20170;-76
2022/06/09 02:33:28;;;;;;;0.70;0.50;;;14.70;99.90;;;;;;5099387;28;20411;-76
2022/06/09 02:35:54;;;;;;;0.80;0.60;;;14.70;99.90;;;;;;5092226;28;20442;-77
2022/06/09 02:38:21;;;;;;;1.77;1.67;;;14.70;99.90;;;;;;5077855;28;20557;-76
2022/06/09 02:40:48;;;;;;;3.00;0.90;;;14.80;99.90;;;;;;5078937;28;20162;-75
2022/06/09 02:43:14;;;;;;;1.00;0.73;;;14.80;99.90;;;;;;5075743;28;20459;-76
2022/06/09 02:45:41;;;;;;;0.83;0.70;;;14.80;99.90;;;;;;5082436;28;20435;-76
2022/06/09 02:48:07;;;;;;;0.80;0.70;;;14.90;99.90;;;;;;5097202;28;20481;-76
2022/06/09 02:50:35;;;;;;;2.20;1.37;;;14.90;99.90;;;;;;5099649;28;20796;-75
2022/06/09 02:53:00;;;;;;;1.00;0.90;;;14.90;99.90;;;;;;5100900;28;20399;-77
2022/06/09 02:55:27;;;;;;;6.93;1.30;;;15.00;99.90;;;;;;5099861;28;20500;-76
2022/06/09 02:57:53;;;;;;;1.10;0.93;;;15.00;99.90;;;;;;5099841;28;20179;-75
2022/06/09 03:00:20;;;;;;;0.70;0.60;;;15.00;99.90;;;;;;5097932;28;20432;-76
2022/06/09 03:02:57;;;;;;;1.10;1.00;;;15.00;99.90;;;;;;5097644;28;20724;-78
2022/06/09 03:05:25;;;;;;;1.03;0.93;;;15.10;99.90;;;;;;5095093;28;20412;-76
2022/06/09 03:07:50;;;;;;;7.20;1.13;;;15.10;99.90;;;;;;5076181;28;20416;-75
2022/06/09 03:10:16;;;;;;;1.50;1.27;;;15.10;99.90;;;;;;5078262;28;20408;-74
2022/06/09 03:12:42;;;;;;;1.23;1.13;;;15.10;99.90;;;;;;5078230;28;20209;-74
2022/06/09 03:15:11;;;;;;;3.20;1.10;;;15.10;99.90;;;;;;5077354;28;20416;-75
2022/06/09 03:17:37;;;;;;;1.27;1.10;;;15.10;99.90;;;;;;5078773;28;20416;-76
2022/06/09 03:20:04;;;;;;;0.80;0.60;;;15.10;99.90;;;;;;5094258;28;20451;-76
2022/06/09 03:22:30;;;;;;;2.63;1.10;;;15.10;99.90;;;;;;5100418;28;20412;-73
2022/06/09 03:24:56;;;;;;;1.37;1.20;;;15.10;99.90;;;;;;5097485;28;20407;-77
2022/06/09 03:27:22;;;;;;;0.90;0.90;;;15.10;99.90;;;;;;5078838;28;20972;-77
2022/06/09 03:29:47;;;;;;;0.80;0.70;;;15.10;99.90;;;;;;5078513;28;20247;-76
2022/06/09 03:32:13;;;;;;;0.80;0.70;;;15.10;99.90;;;;;;5077227;28;20209;-76
2022/06/09 03:34:38;;;;;;;1.00;0.90;;;15.10;99.90;;;;;;5077434;28;20177;-76
2022/06/09 03:37:04;;;;;;;0.80;0.70;;;15.10;99.90;;;;;;5094375;28;20201;-76
2022/06/09 03:39:29;;;;;;;1.13;1.00;;;15.10;99.90;;;;;;5097901;28;20281;-77
2022/06/09 03:41:55;;;;;;;1.30;1.20;;;15.10;99.90;;;;;;5097850;28;20270;-76
2022/06/09 03:44:20;;;;;;;0.80;0.80;;;15.10;99.90;;;;;;5098289;28;20543;-75
2022/06/09 03:46:46;;;;;;;3.33;3.13;;;15.10;99.90;;;;;;5080972;28;20190;-76
2022/06/09 03:49:12;;;;;;;2.90;0.97;;;15.10;99.90;;;;;;5080946;28;20177;-76
2022/06/09 03:51:37;;;;;;;1.70;1.13;;;15.10;99.90;;;;;;5077960;28;20321;-76
2022/06/09 03:54:03;;;;;;;1.23;0.83;;;15.20;99.90;;;;;;5077925;28;20181;-77
2022/06/09 03:56:29;;;;;;;1.30;1.20;;;15.20;99.90;;;;;;5093512;28;20217;-76
2022/06/09 03:58:54;;;;;;;1.03;0.77;;;15.20;99.90;;;;;;5101111;28;20197;-76
2022/06/09 04:01:20;;;;;;;0.80;0.77;;;15.30;99.90;;;;;;5101649;28;20206;-75
2022/06/09 04:03:47;;;;;;;1.00;0.90;;;15.40;99.90;;;;;;5101396;28;20399;-76
2022/06/09 04:06:17;;;;;;;7.50;1.03;;;15.40;99.90;;;;;;5098443;28;20197;-76
2022/06/09 04:08:43;;;;;;;0.80;0.70;;;15.40;99.90;;;;;;5099168;28;20944;-76
2022/06/09 04:11:09;;;;;;;1.07;1.00;;;15.50;99.90;;;;;;5100817;28;20416;-76
2022/06/09 04:13:38;;;;;;;1.10;1.00;;;15.50;99.90;;;;;;5100182;28;20403;-76
2022/06/09 04:16:19;;;;;;;1.20;0.97;;;15.60;99.90;;;;;;5086770;28;20475;-76
2022/06/09 04:18:45;;;;;;;2.90;0.90;;;15.60;99.90;;;;;;5078788;28;20451;-76
2022/06/09 04:21:11;;;;;;;0.70;0.60;;;15.70;99.90;;;;;;5081126;28;20408;-75
2022/06/09 04:23:36;;;;;;;4.30;1.70;;;15.70;99.90;;;;;;5079382;28;20171;-75
2022/06/09 04:26:02;;;;;;;0.97;0.80;;;15.70;99.90;;;;;;5090776;28;20439;-75
2022/06/09 04:28:28;;;;;;;7.23;2.50;;;15.70;99.90;;;;;;5099892;28;20666;-75
2022/06/09 04:30:54;;;;;;;1.20;0.90;;;15.70;99.90;;;;;;5100235;28;20497;-76
2022/06/09 04:33:19;;;;;;;1.47;1.37;;;15.70;99.90;;;;;;5102739;28;20181;-76
2022/06/09 04:35:45;;;;;;;2.50;1.57;;;15.70;99.90;;;;;;5094543;28;20198;-75
2022/06/09 04:38:12;;;;;;;1.20;0.80;;;15.80;99.90;;;;;;5079459;28;20174;-76
2022/06/09 04:40:39;;;;;;;1.00;0.90;;;15.80;99.90;;;;;;5078861;28;20608;-76
2022/06/09 04:43:10;;;;;;;0.80;0.60;;;15.80;99.90;;;;;;5079063;28;20404;-75
2022/06/09 04:45:37;;;;;;;0.80;0.80;;;15.90;99.90;;;;;;5085810;28;20440;-75
2022/06/09 04:48:04;;;;;;;0.80;0.73;;;15.90;99.90;;;;;;5100263;28;20419;-75
2022/06/09 04:50:30;;;;;;;0.80;0.70;;;16.00;99.90;;;;;;5101453;28;20486;-76
2022/06/09 04:52:57;;;;;;;1.33;1.20;;;16.00;99.90;;;;;;5100280;28;20407;-76
2022/06/09 04:55:23;;;;;;;1.90;1.50;;;16.00;99.90;;;;;;5097403;28;20450;-75
2022/06/09 04:57:48;;;;;;;0.90;0.80;;;16.10;99.90;;;;;;5081147;28;21141;-74
2022/06/09 05:00:15;;;;;;;4.67;1.27;;;16.10;99.90;;;;;;5079629;28;20468;-75
2022/06/09 05:02:42;;;;;;;1.27;1.17;;;16.20;99.90;;;;;;5081388;28;20162;-74
2022/06/09 05:05:10;;;;;;;0.97;0.87;;;16.20;99.90;;;;;;5080249;28;20405;-74
2022/06/09 05:07:36;;;;;;;1.10;1.00;;;16.30;99.90;;;;;;5099910;28;20399;-75
2022/06/09 05:10:02;;;;;;;0.90;0.67;;;16.40;99.90;;;;;;5101336;28;20411;-74
2022/06/09 05:12:27;;;;;;;2.70;1.33;;;16.40;99.90;;;;;;5099522;28;20768;-73
2022/06/09 05:14:53;;;;;;;4.00;1.20;;;16.40;99.90;;;;;;5100373;28;20177;-76
2022/06/09 05:17:19;;;;;;;1.00;0.90;;;16.50;99.90;;;;;;5081536;28;20521;-75
2022/06/09 05:19:46;;;;;;;1.00;0.80;;;16.50;99.90;;;;;;5081807;28;20197;-75
2022/06/09 05:22:12;;;;;;;7.30;1.97;;;16.50;99.90;;;;;;5079478;28;20417;-76
2022/06/09 05:24:37;;;;;;;1.73;1.60;;;16.40;99.90;;;;;;5078824;28;20409;-75
2022/06/09 05:27:03;;;;;;;0.90;0.77;;;16.30;99.90;;;;;;5094170;28;20454;-76
2022/06/09 05:29:29;;;;;;;1.63;1.10;;;16.30;99.90;;;;;;5099544;28;20261;-76
2022/06/09 05:31:54;;;;;;;0.80;0.80;;;16.30;99.90;;;;;;5097812;28;20473;-76
2022/06/09 05:34:20;;;;;;;0.80;0.60;;;16.30;99.90;;;;;;5099367;28;20272;-74
2022/06/09 05:36:46;;;;;;;1.20;1.10;;;16.20;99.90;;;;;;5085048;28;20197;-74
2022/06/09 05:44:53;;;;;;;1.37;1.10;;;16.40;99.90;;;;;;5080273;28;20988;-76
2022/06/09 05:47:21;;;;;;;1.50;0.97;;;16.50;99.90;;;;;;5098122;28;20447;-75
2022/06/09 05:49:47;;;;;;;1.70;1.50;;;16.60;99.90;;;;;;5100568;28;20412;-75
2022/06/09 05:52:15;;;;;;;1.73;0.77;;;16.70;99.90;;;;;;5098291;28;20452;-75
2022/06/09 05:54:40;;;;;;;1.30;1.20;;;16.80;99.90;;;;;;5097695;28;20495;-73
2022/06/09 05:57:06;;;;;;;1.43;1.33;;;16.90;99.90;;;;;;5082012;28;20472;-76
2022/06/09 05:59:32;;;;;;;1.60;1.50;;;17.10;99.90;;;;;;5077598;28;20194;-76
2022/06/09 06:01:57;;;;;;;1.20;1.10;;;17.30;99.90;;;;;;5078538;28;20178;-76
2022/06/09 06:04:23;;;;;;;1.73;1.00;;;17.60;99.90;;;;;;5080553;28;20233;-75
2022/06/09 06:06:48;;;;;;;3.87;3.13;;;18.00;99.90;;;;;;5091723;28;20217;-76
2022/06/09 06:09:17;;;;;;;1.33;1.23;;;18.30;99.90;;;;;;5097588;28;20174;-76
2022/06/09 06:11:43;;;;;;;1.30;1.13;;;18.60;99.90;;;;;;5099277;28;20184;-75
2022/06/09 06:14:10;;;;;;;1.07;0.97;;;18.90;99.90;;;;;;5095384;28;20411;-73
2022/06/09 06:16:37;;;;;;;1.80;1.27;;;19.10;99.90;;;;;;5085035;28;20436;-75
2022/06/09 06:19:04;;;;;;;3.33;1.63;;;19.30;99.90;;;;;;5077630;28;20478;-75
2022/06/09 06:21:30;;;;;;;1.80;1.50;;;19.50;99.90;;;;;;5077827;28;20413;-77
2022/06/09 06:23:56;;;;;;;1.30;1.10;;;19.70;99.90;;;;;;5078529;28;20806;-76
2022/06/09 06:26:22;;;;;;;1.77;1.37;;;19.90;99.90;;;;;;5086791;28;20217;-74
2022/06/09 06:28:47;;;;;;;1.73;1.63;;;20.10;99.90;;;;;;5097199;28;20169;-76
2022/06/09 06:31:13;;;;;;;1.07;0.97;;;20.20;99.90;;;;;;5097788;28;21034;-75
2022/06/09 06:33:38;;;;;;;2.90;2.17;;;20.40;99.90;;;;;;5098385;28;20165;-76
2022/06/09 06:36:05;;;;;;;2.50;2.30;;;20.40;99.90;;;;;;5090295;28;20208;-75
2022/06/09 06:38:31;;;;;;;1.53;1.30;;;20.50;99.90;;;;;;5078325;28;20194;-75
2022/06/09 06:40:57;;;;;;;1.37;1.27;;;20.70;99.90;;;;;;5074666;28;20412;-76
2022/06/09 06:43:23;;;;;;;2.40;1.30;;;20.90;99.90;;;;;;5076353;28;20413;-76
2022/06/09 06:45:49;;;;;;;1.40;1.30;;;21.00;99.90;;;;;;5077734;28;20197;-76
2022/06/09 06:48:15;;;;;;;1.10;1.00;;;21.10;99.90;;;;;;5095683;28;20399;-75
2022/06/09 06:50:41;;;;;;;1.73;1.60;;;21.20;99.90;;;;;;5096659;28;20252;-76
2022/06/09 06:53:07;;;;;;;2.80;1.40;;;21.10;99.90;;;;;;5093989;28;20165;-76
2022/06/09 06:55:32;;;;;;;6.30;2.27;;;21.10;99.90;;;;;;5093930;28;21002;-76
2022/06/09 06:57:58;;;;;;;2.20;2.00;;;21.10;99.90;;;;;;5075761;28;20193;-74
2022/06/09 07:00:25;;;;;;;1.57;1.47;;;21.00;99.90;;;;;;5076081;28;20232;-75
2022/06/09 07:02:51;;;;;;;1.53;1.20;;;20.90;99.90;;;;;;5075504;28;20163;-74
2022/06/09 07:05:19;;;;;;;1.77;0.80;;;20.90;99.90;;;;;;5076157;28;20407;-75
2022/06/09 07:07:45;;;;;;;1.00;0.90;;;20.80;99.90;;;;;;5094353;28;20488;-75
2022/06/09 07:10:13;;;;;;;1.50;1.30;;;20.70;99.90;;;;;;5095240;28;20490;-76
2022/06/09 07:12:39;;;;;;;1.43;1.33;;;20.70;99.90;;;;;;5095012;28;20173;-76
2022/06/09 07:15:06;;;;;;;1.10;1.00;;;20.70;99.90;;;;;;5094582;28;20408;-74
2022/06/09 07:17:31;;;;;;;1.30;1.10;;;20.60;99.90;;;;;;5074210;28;20582;-75
2022/06/09 07:19:57;;;;;;;1.63;1.53;;;20.60;99.90;;;;;;5073054;28;21013;-75
2022/06/09 07:22:23;;;;;;;1.13;1.03;;;20.60;99.90;;;;;;5073780;28;20174;-76
2022/06/09 07:24:48;;;;;;;1.20;0.97;;;20.60;99.90;;;;;;5087434;28;20177;-76
2022/06/09 07:27:14;;;;;;;1.90;1.67;;;20.60;99.90;;;;;;5095260;28;20670;-76
2022/06/09 07:29:41;;;;;;;3.30;1.70;;;20.50;99.90;;;;;;5094710;28;20196;-75
2022/06/09 07:32:08;;;;;;;1.70;1.60;;;20.60;99.90;;;;;;5096966;28;20403;-76
2022/06/09 07:34:34;;;;;;;1.87;1.77;;;20.60;99.90;;;;;;5084315;28;20434;-73
2022/06/09 07:37:00;;;;;;;1.40;1.30;;;20.60;99.90;;;;;;5075513;28;20436;-76
2022/06/09 07:39:26;;;;;;;1.67;1.40;;;20.60;99.90;;;;;;5077354;28;20478;-75
2022/06/09 07:41:52;;;;;;;2.60;2.23;;;20.60;99.90;;;;;;5077690;28;20167;-75
2022/06/09 07:44:18;;;;;;;1.43;1.33;;;20.60;99.90;;;;;;5086751;28;20418;-73
2022/06/09 07:46:43;;;;;;;1.50;1.07;;;20.60;99.90;;;;;;5097529;28;20424;-75
2022/06/09 07:49:09;;;;;;;1.63;1.53;;;20.70;99.90;;;;;;5096645;28;20178;-75
2022/06/09 07:51:35;;;;;;;1.53;1.43;;;20.70;99.90;;;;;;5097245;28;20204;-76
2022/06/09 07:54:01;;;;;;;5.40;1.50;;;20.70;99.90;;;;;;5087792;28;20851;-75
2022/06/09 07:56:28;;;;;;;1.93;1.73;;;20.70;99.90;;;;;;5076287;28;20428;-75
2022/06/09 07:58:54;;;;;;;1.57;1.23;;;20.80;99.90;;;;;;5075591;28;20975;-76
2022/06/09 08:01:22;;;;;;;1.13;1.03;;;20.80;99.90;;;;;;5076717;28;20408;-75
2022/06/09 08:03:48;;;;;;;1.40;1.13;;;20.80;99.90;;;;;;5076275;28;20438;-76
2022/06/09 08:06:14;;;;;;;1.77;1.67;;;20.80;99.90;;;;;;5085335;28;20435;-75
2022/06/09 08:08:39;;;;;;;1.43;1.33;;;20.80;99.90;;;;;;5095799;28;20403;-75
2022/06/09 08:11:07;;;;;;;3.37;2.70;;;20.80;99.90;;;;;;5095323;28;20435;-75
2022/06/09 08:13:33;;;;;;;1.27;1.17;;;20.90;99.90;;;;;;5096742;28;20166;-73
2022/06/09 08:16:00;;;;;;;2.60;1.37;;;20.90;99.90;;;;;;5095330;28;20423;-76
2022/06/09 08:18:26;;;;;;;2.70;0.90;;;20.90;99.90;;;;;;5084852;28;20452;-75
2022/06/09 08:20:51;;;;;;;3.33;1.60;;;21.00;99.90;;;;;;5075479;28;20948;-76
2022/06/09 08:23:21;;;;;;;1.93;1.00;;;21.00;99.90;;;;;;5073731;28;20174;-74
2022/06/09 08:25:48;;;;;;;1.87;1.67;;;21.10;99.90;;;;;;5074827;28;20190;-76
2022/06/09 08:28:18;;;;;;;1.27;1.17;;;21.10;99.90;;;;;;5074578;28;20430;-75
2022/06/09 08:30:46;;;;;;;1.70;1.30;;;21.20;99.90;;;;;;5086676;28;20422;-75
2022/06/09 08:33:11;;;;;;;1.20;1.10;;;21.30;99.90;;;;;;5094302;28;20438;-75
2022/06/09 08:35:38;;;;;;;1.00;0.90;;;21.40;99.90;;;;;;5095550;28;20427;-73
2022/06/09 08:38:05;;;;;;;3.67;1.87;;;21.50;99.90;;;;;;5097591;28;20165;-75
2022/06/09 08:40:36;;;;;;;1.40;1.23;;;21.60;99.90;;;;;;5097691;28;20411;-76
2022/06/09 08:43:39;;;;;;;1.87;1.53;;;21.80;99.90;;;;;;5083937;28;20906;-76
2022/06/09 08:46:18;;;;;;;1.70;1.60;;;21.80;99.90;;;;;;5080149;28;20424;-75
2022/06/09 08:48:45;;;;;;;1.67;1.37;;;21.90;99.90;;;;;;5080340;28;20400;-75
2022/06/09 08:51:29;;;;;;;3.07;0.90;;;22.00;99.90;;;;;;5085344;28;20486;-76
2022/06/09 08:54:04;;;;;;;1.33;1.23;;;22.10;99.90;;;;;;5097647;28;20439;-75
2022/06/09 08:56:31;;;;;;;1.23;1.13;;;22.40;99.90;;;;;;5100992;28;20961;-75
2022/06/09 08:59:04;;;;;;;1.07;0.90;;;22.70;99.90;;;;;;5099026;28;20465;-75
2022/06/09 09:01:43;;;;;;;1.00;0.80;;;23.10;99.90;;;;;;5079857;28;20425;-76
2022/06/09 09:04:31;;;;;;;1.10;1.00;;;23.60;99.90;;;;;;5079772;28;20491;-75
2022/06/09 09:07:06;;;;;;;1.43;1.13;;;24.00;99.90;;;;;;5077722;28;20808;-76
2022/06/09 09:09:34;;;;;;;3.07;1.80;;;24.60;99.90;;;;;;5084215;28;20419;-75
2022/06/09 09:12:05;;;;;;;2.90;1.67;;;25.30;99.90;;;;;;5099926;28;21019;-74
2022/06/09 09:14:43;;;;;;;1.00;0.90;;;25.70;99.90;;;;;;5100736;28;20805;-75
2022/06/09 09:17:28;;;;;;;1.20;1.00;;;25.80;99.90;;;;;;5099504;28;20438;-76
2022/06/09 09:20:05;;;;;;;1.37;1.13;;;25.90;99.90;;;;;;5091747;28;20486;-76
2022/06/09 09:23:13;;;;;;;1.20;1.03;;;26.20;99.90;;;;;;5078773;28;20416;-76
2022/06/09 09:25:54;;;;;;;1.80;1.70;;;28.80;99.90;;;;;;5082470;28;20436;-74
2022/06/09 09:28:32;;;;;;;1.57;1.47;;;31.60;99.90;;;;;;5082312;28;20415;-75
2022/06/09 09:31:34;;;;;;;1.30;1.20;;;33.50;90.60;;;;;;5082842;28;20416;-75
2022/06/09 09:34:02;;;;;;;1.40;1.30;;;35.20;65.90;;;;;;5097639;28;20403;-75
2022/06/09 09:36:31;;;;;;;1.80;1.50;;;36.30;55.80;;;;;;5098083;28;20435;-76
2022/06/09 09:39:03;;;;;;;1.30;1.20;;;37.40;51.20;;;;;;5099261;28;20551;-76
2022/06/09 09:41:35;;;;;;;1.33;1.23;;;38.40;49.00;;;;;;5097494;28;20400;-75
2022/06/09 09:44:13;;;;;;;1.30;1.20;;;39.90;47.20;;;;;;5088373;28;20416;-76
2022/06/09 09:46:41;;;;;;;1.77;1.23;;;41.10;43.80;;;;;;5078819;28;20451;-76
2022/06/09 09:49:22;;;;;;;3.27;1.30;;;41.50;42.40;;;;;;5076267;28;20409;-76
2022/06/09 09:51:48;;;;;;;1.73;1.00;;;41.70;41.20;;;;;;5080446;28;20403;-76
2022/06/09 09:54:29;;;;;;;1.87;1.20;;;41.50;39.10;;;;;;5079237;28;20527;-73
2022/06/09 09:57:14;;;;;;;1.27;1.17;;;41.60;39.80;;;;;;5092910;28;20786;-76
2022/06/09 09:59:52;;;;;;;1.50;1.40;;;42.00;38.90;;;;;;5098942;28;20451;-75
2022/06/09 10:08:41;;;;;;;1.40;1.30;;;39.80;39.60;;;;;;5089571;28;20418;-76
2022/06/09 10:14:00;;;;;;;1.30;1.20;;;41.10;39.20;;;;;;5080921;28;20403;-74
2022/06/09 10:16:29;;;;;;;1.27;1.17;;;40.80;36.90;;;;;;5080209;28;20432;-76
2022/06/09 10:19:01;;;;;;;1.20;1.10;;;39.70;36.60;;;;;;5080508;28;20484;-76
2022/06/09 10:21:26;;;;;;;1.33;1.07;;;39.40;38.80;;;;;;5079681;28;20419;-76
2022/06/09 10:24:00;;;;;;;1.93;1.00;;;40.30;39.10;;;;;;5078920;28;20405;-74
2022/06/09 10:26:33;;;;;;;1.57;1.30;;;42.00;38.90;;;;;;5079330;28;20186;-76
2022/06/09 10:29:11;;;;;;;2.70;2.50;;;43.90;38.20;;;;;;5091899;28;20416;-74
2022/06/09 10:31:57;;;;;;;1.70;1.60;;;44.00;35.20;;;;;;5099664;28;20873;-76
2022/06/09 10:34:50;;;;;;;2.40;1.60;;;42.90;34.50;;;;;;5096848;28;20415;-75
2022/06/09 10:37:27;;;;;;;1.53;1.43;;;41.70;35.10;;;;;;5098637;28;20426;-76
2022/06/09 10:40:03;;;;;;;1.80;1.67;;;41.10;36.30;;;;;;5092457;28;20466;-75
2022/06/09 10:43:10;;;;;;;1.73;1.23;;;41.00;36.90;;;;;;5078184;28;20462;-76
2022/06/09 10:46:07;;;;;;;5.23;1.47;;;42.50;37.00;;;;;;5063970;28;20428;-76
2022/06/09 10:55:18;;;;;;;1.47;1.37;;;48.30;32.00;;;;;;5079139;28;20420;-76
2022/06/09 10:58:15;;;;;;;1.50;1.40;;;49.70;30.90;;;;;;5076429;28;20474;-76
2022/06/09 11:00:49;;;;;;;2.30;2.10;;;51.30;30.40;;;;;;5039559;28;20403;-77
2022/06/09 11:03:36;;;;;;;1.40;1.20;;;52.30;29.10;;;;;;5080077;28;20433;-77
2022/06/09 11:06:27;;;;;;;1.50;1.40;;;53.20;28.30;;;;;;5077764;28;20424;-77
2022/06/09 11:09:17;;;;;;;1.50;1.40;;;54.10;28.00;;;;;;5046783;28;20478;-77
2022/06/09 11:11:59;;;;;;;1.77;1.67;;;55.20;27.70;;;;;;5079088;28;20443;-76
2022/06/09 11:14:52;;;;;;;2.00;1.90;;;55.30;26.70;;;;;;5078587;28;20378;-76
2022/06/09 11:17:31;;;;;;;1.60;1.50;;;55.40;26.00;;;;;;5094887;28;20778;-77
2022/06/09 11:20:11;;;;;;;2.07;1.87;;;55.80;25.90;;;;;;5097481;28;20433;-75
2022/06/09 11:22:55;;;;;;;1.70;1.60;;;56.40;25.60;;;;;;5099602;28;20763;-77
2022/06/09 11:25:42;;;;;;;1.87;1.77;;;56.90;25.20;;;;;;5098058;28;20490;-74
2022/06/09 11:28:17;;;;;;;1.80;1.70;;;57.30;24.90;;;;;;5089337;28;20445;-75
2022/06/09 11:31:20;;;;;;;2.10;2.00;;;57.70;24.60;;;;;;5077859;28;20391;-75
2022/06/09 11:34:25;;;;;;;1.70;1.60;;;57.30;24.40;;;;;;5080924;28;20448;-74
2022/06/09 11:37:12;;;;;;;1.70;1.60;;;56.50;24.20;;;;;;5080248;28;20421;-73
2022/06/09 11:39:37;;;;;;;1.83;1.73;;;55.60;24.30;;;;;;5082934;28;20416;-74
2022/06/09 11:42:17;;;;;;;1.80;1.70;;;55.50;24.70;;;;;;5098893;28;20386;-74
2022/06/09 11:44:44;;;;;;;1.70;1.60;;;55.70;24.50;;;;;;5078747;28;20180;-74
2022/06/09 11:47:16;;;;;;;1.63;1.53;;;56.20;24.40;;;;;;5080625;28;20860;-74
2022/06/09 11:49:54;;;;;;;1.80;1.70;;;56.70;24.40;;;;;;5081812;28;20460;-74
2022/06/09 11:52:35;;;;;;;1.90;1.80;;;57.00;24.10;;;;;;5081794;28;20431;-75
2022/06/09 11:55:06;;;;;;;1.90;1.80;;;56.60;23.60;;;;;;5099354;28;20448;-74
2022/06/09 11:57:31;;;;;;;1.80;1.70;;;55.80;23.60;;;;;;5099564;28;20512;-74
2022/06/09 12:00:19;;;;;;;1.70;1.60;;;55.70;23.90;;;;;;5099646;28;20458;-73
2022/06/09 12:02:59;;;;;;;1.60;1.50;;;56.10;24.10;;;;;;5099595;28;20207;-74
2022/06/09 12:05:43;;;;;;;1.70;1.60;;;56.60;23.90;;;;;;5080348;28;20383;-74
2022/06/09 12:08:57;;;;;;;2.10;2.00;;;57.10;24.00;;;;;;5080200;28;20400;-73
2022/06/09 12:11:24;;;;;;;2.00;1.90;;;57.40;23.30;;;;;;5006689;28;20489;-74
2022/06/09 12:14:10;;;;;;;2.10;2.00;;;57.50;23.10;;;;;;5084368;28;20912;-75
2022/06/09 12:16:57;;;;;;;1.90;1.80;;;57.50;23.30;;;;;;5099941;28;20410;-72
2022/06/09 12:19:36;;;;;;;2.20;2.10;;;57.50;23.20;;;;;;5102138;28;20407;-75
2022/06/09 12:22:40;;;;;;;1.80;1.70;;;56.20;22.70;;;;;;5102306;28;20407;-74
2022/06/09 12:25:08;;;;;;;1.90;1.80;;;55.40;22.90;;;;;;5005187;28;20450;-74
2022/06/09 12:27:45;;;;;;;1.83;1.73;;;55.30;23.00;;;;;;5068669;28;20441;-75
2022/06/09 12:30:32;;;;;;;2.50;1.97;;;55.40;23.10;;;;;;5083200;28;20462;-75
2022/06/09 12:33:27;;;;;;;1.83;1.73;;;55.50;22.80;;;;;;5081773;28;20787;-74
2022/06/09 12:36:08;;;;;;;1.77;1.67;;;55.00;22.70;;;;;;5082756;28;20422;-74
2022/06/09 12:38:41;;;;;;;1.80;1.70;;;54.00;22.70;;;;;;5093040;28;20397;-75
2022/06/09 12:41:22;;;;;;;1.40;1.30;;;52.40;23.10;;;;;;5103352;28;20382;-74
2022/06/09 12:44:07;;;;;;;1.70;1.60;;;50.40;23.50;;;;;;5100671;28;20484;-76
2022/06/09 12:46:33;;;;;;;1.67;1.57;;;48.30;24.40;;;;;;5098960;28;20452;-74
2022/06/09 12:48:59;;;;;;;1.50;1.40;;;46.10;25.40;;;;;;5100752;28;20479;-76
2022/06/09 12:51:33;;;;;;;1.77;1.67;;;44.10;25.70;;;;;;5081351;28;20903;-75
2022/06/09 12:54:00;;;;;;;1.00;0.90;;;42.10;26.80;;;;;;5077668;28;20178;-73
2022/06/09 12:56:34;;;;;;;1.53;1.10;;;40.10;27.70;;;;;;5078102;28;20444;-75
2022/06/09 12:59:22;;;;;;;1.20;1.10;;;38.30;28.70;;;;;;5076806;28;20424;-74
2022/06/09 13:02:17;;;;;;;1.03;0.93;;;36.60;30.20;;;;;;5076994;28;20413;-74
2022/06/09 13:04:50;;;;;;;1.03;0.87;;;35.00;32.30;;;;;;5069974;28;20420;-73
2022/06/09 13:07:25;;;;;;;2.13;1.10;;;33.60;34.20;;;;;;5090731;28;20439;-74
2022/06/09 13:10:05;;;;;;;1.00;0.80;;;32.60;35.60;;;;;;5096802;28;20935;-75
2022/06/09 13:12:50;;;;;;;1.00;0.83;;;31.70;36.70;;;;;;5094725;28;20411;-75
2022/06/09 13:15:27;;;;;;;1.33;1.20;;;31.00;37.80;;;;;;5094083;28;20411;-75
2022/06/09 13:17:53;;;;;;;1.30;0.97;;;30.20;39.00;;;;;;5076597;28;20412;-73
2022/06/09 13:20:24;;;;;;;1.53;0.80;;;29.70;39.90;;;;;;5075920;28;20423;-76
2022/06/09 13:22:50;;;;;;;1.10;1.00;;;29.20;41.00;;;;;;5076931;28;20166;-74
2022/06/09 13:25:21;;;;;;;1.00;0.80;;;28.70;41.90;;;;;;5076573;28;20773;-75
2022/06/09 13:27:48;;;;;;;1.03;0.90;;;28.30;42.90;;;;;;5094250;28;20511;-75
2022/06/09 13:30:52;;;;;;;1.13;0.80;;;28.00;43.80;;;;;;5097014;28;20791;-75
2022/06/09 13:33:33;;;;;;;1.00;0.70;;;27.80;44.60;;;;;;5052961;28;20418;-74